sensor_id;sensor_type;location;lat;lon;timestamp;P1;durP1;ratioP1;P2;durP2;ratioP2
80621;SDS011;69980;51.914;7.526;2023-05-27T00:00:50;10.90;;;3.20;;
80621;SDS011;69980;51.914;7.526;2023-05-27T00:03:15;11.48;;;3.13;;
80621;SDS011;69980;51.914;7.526;2023-05-27T00:05:41;16.25;;;3.65;;
80621;SDS011;69980;51.914;7.526;2023-05-27T00:08:06;10.35;;;3.50;;
80621;SDS011;69980;51.914;7.526;2023-05-27T00:10:31;11.10;;;3.17;;
80621;SDS011;69980;51.914;7.526;2023-05-27T00:12:56;7.43;;;2.97;;
80621;SDS011;69980;51.914;7.526;2023-05-27T00:15:22;12.48;;;3.63;;
80621;SDS011;69980;51.914;7.526;2023-05-27T00:17:47;11.40;;;3.10;;
80621;SDS011;69980;51.914;7.526;2023-05-27T00:20:12;11.50;;;3.10;;
80621;SDS011;69980;51.914;7.526;2023-05-27T00:22:38;12.27;;;3.20;;
80621;SDS011;69980;51.914;7.526;2023-05-27T00:25:03;10.18;;;3.50;;
80621;SDS011;69980;51.914;7.526;2023-05-27T00:27:29;11.07;;;3.35;;
80621;SDS011;69980;51.914;7.526;2023-05-27T00:29:54;10.85;;;3.47;;
80621;SDS011;69980;51.914;7.526;2023-05-27T00:32:19;11.70;;;3.10;;
80621;SDS011;69980;51.914;7.526;2023-05-27T00:34:45;14.77;;;3.42;;
80621;SDS011;69980;51.914;7.526;2023-05-27T00:37:10;11.40;;;3.63;;
80621;SDS011;69980;51.914;7.526;2023-05-27T00:39:35;13.95;;;3.75;;
80621;SDS011;69980;51.914;7.526;2023-05-27T00:42:00;10.80;;;3.25;;
80621;SDS011;69980;51.914;7.526;2023-05-27T00:44:27;11.25;;;3.60;;
80621;SDS011;69980;51.914;7.526;2023-05-27T00:46:53;12.35;;;3.50;;
80621;SDS011;69980;51.914;7.526;2023-05-27T00:49:18;13.38;;;3.70;;
80621;SDS011;69980;51.914;7.526;2023-05-27T00:51:43;14.93;;;3.92;;
80621;SDS011;69980;51.914;7.526;2023-05-27T00:54:09;10.00;;;3.58;;
80621;SDS011;69980;51.914;7.526;2023-05-27T00:56:35;10.75;;;3.60;;
80621;SDS011;69980;51.914;7.526;2023-05-27T00:59:01;11.40;;;3.38;;
80621;SDS011;69980;51.914;7.526;2023-05-27T01:01:26;10.52;;;3.60;;
80621;SDS011;69980;51.914;7.526;2023-05-27T01:03:52;11.23;;;3.42;;
80621;SDS011;69980;51.914;7.526;2023-05-27T01:11:38;11.20;;;3.85;;
80621;SDS011;69980;51.914;7.526;2023-05-27T01:14:08;11.52;;;4.00;;
80621;SDS011;69980;51.914;7.526;2023-05-27T01:16:36;16.65;;;3.90;;
80621;SDS011;69980;51.914;7.526;2023-05-27T01:19:02;10.18;;;4.30;;
80621;SDS011;69980;51.914;7.526;2023-05-27T01:21:32;10.18;;;3.60;;
80621;SDS011;69980;51.914;7.526;2023-05-27T01:24:02;11.88;;;3.53;;
80621;SDS011;69980;51.914;7.526;2023-05-27T01:26:28;9.45;;;3.45;;
80621;SDS011;69980;51.914;7.526;2023-05-27T01:28:53;11.07;;;4.50;;
80621;SDS011;69980;51.914;7.526;2023-05-27T01:31:23;15.52;;;4.43;;
80621;SDS011;69980;51.914;7.526;2023-05-27T01:34:01;9.15;;;3.42;;
80621;SDS011;69980;51.914;7.526;2023-05-27T01:38:55;12.27;;;3.65;;
80621;SDS011;69980;51.914;7.526;2023-05-27T01:41:21;15.18;;;4.00;;
80621;SDS011;69980;51.914;7.526;2023-05-27T01:43:46;15.38;;;4.70;;
80621;SDS011;69980;51.914;7.526;2023-05-27T01:46:12;13.05;;;3.85;;
80621;SDS011;69980;51.914;7.526;2023-05-27T01:48:37;13.02;;;4.13;;
80621;SDS011;69980;51.914;7.526;2023-05-27T01:51:03;14.15;;;4.22;;
80621;SDS011;69980;51.914;7.526;2023-05-27T01:53:28;8.23;;;2.88;;
80621;SDS011;69980;51.914;7.526;2023-05-27T01:55:53;11.88;;;4.20;;
80621;SDS011;69980;51.914;7.526;2023-05-27T01:58:18;13.40;;;4.50;;
80621;SDS011;69980;51.914;7.526;2023-05-27T02:00:44;12.57;;;3.55;;
80621;SDS011;69980;51.914;7.526;2023-05-27T02:03:09;14.23;;;4.10;;
80621;SDS011;69980;51.914;7.526;2023-05-27T02:05:34;10.43;;;3.65;;
80621;SDS011;69980;51.914;7.526;2023-05-27T02:08:00;13.57;;;4.50;;
80621;SDS011;69980;51.914;7.526;2023-05-27T02:10:25;14.02;;;4.05;;
80621;SDS011;69980;51.914;7.526;2023-05-27T02:12:50;10.88;;;3.58;;
80621;SDS011;69980;51.914;7.526;2023-05-27T02:15:15;12.07;;;4.45;;
80621;SDS011;69980;51.914;7.526;2023-05-27T02:17:41;11.07;;;3.80;;
80621;SDS011;69980;51.914;7.526;2023-05-27T02:20:06;11.32;;;4.20;;
80621;SDS011;69980;51.914;7.526;2023-05-27T02:22:32;12.60;;;3.92;;
80621;SDS011;69980;51.914;7.526;2023-05-27T02:24:57;10.40;;;3.97;;
80621;SDS011;69980;51.914;7.526;2023-05-27T02:27:22;10.38;;;4.22;;
80621;SDS011;69980;51.914;7.526;2023-05-27T02:29:48;14.20;;;5.00;;
80621;SDS011;69980;51.914;7.526;2023-05-27T02:32:13;11.80;;;4.43;;
80621;SDS011;69980;51.914;7.526;2023-05-27T02:34:38;13.75;;;4.75;;
80621;SDS011;69980;51.914;7.526;2023-05-27T02:37:04;12.55;;;4.55;;
80621;SDS011;69980;51.914;7.526;2023-05-27T02:39:30;9.15;;;4.10;;
80621;SDS011;69980;51.914;7.526;2023-05-27T02:41:55;10.98;;;4.00;;
80621;SDS011;69980;51.914;7.526;2023-05-27T02:44:22;9.93;;;4.22;;
80621;SDS011;69980;51.914;7.526;2023-05-27T02:46:47;15.10;;;4.28;;
80621;SDS011;69980;51.914;7.526;2023-05-27T02:49:12;11.70;;;4.07;;
80621;SDS011;69980;51.914;7.526;2023-05-27T02:51:39;12.80;;;4.43;;
80621;SDS011;69980;51.914;7.526;2023-05-27T02:54:04;8.48;;;4.20;;
80621;SDS011;69980;51.914;7.526;2023-05-27T02:56:29;13.02;;;4.18;;
80621;SDS011;69980;51.914;7.526;2023-05-27T02:58:55;12.05;;;3.70;;
80621;SDS011;69980;51.914;7.526;2023-05-27T03:01:21;14.93;;;4.60;;
80621;SDS011;69980;51.914;7.526;2023-05-27T03:03:47;9.52;;;4.72;;
80621;SDS011;69980;51.914;7.526;2023-05-27T03:06:12;9.65;;;4.00;;
80621;SDS011;69980;51.914;7.526;2023-05-27T03:08:37;9.10;;;4.00;;
80621;SDS011;69980;51.914;7.526;2023-05-27T03:11:02;10.55;;;3.80;;
80621;SDS011;69980;51.914;7.526;2023-05-27T03:13:28;11.43;;;3.85;;
80621;SDS011;69980;51.914;7.526;2023-05-27T03:15:53;9.73;;;3.80;;
80621;SDS011;69980;51.914;7.526;2023-05-27T03:18:18;11.75;;;4.20;;
80621;SDS011;69980;51.914;7.526;2023-05-27T03:20:44;14.13;;;4.60;;
80621;SDS011;69980;51.914;7.526;2023-05-27T03:23:09;6.97;;;3.15;;
80621;SDS011;69980;51.914;7.526;2023-05-27T03:25:34;13.60;;;4.50;;
80621;SDS011;69980;51.914;7.526;2023-05-27T03:27:59;10.20;;;4.10;;
80621;SDS011;69980;51.914;7.526;2023-05-27T03:30:26;11.45;;;4.07;;
80621;SDS011;69980;51.914;7.526;2023-05-27T03:32:51;12.10;;;4.38;;
80621;SDS011;69980;51.914;7.526;2023-05-27T03:35:18;10.73;;;4.03;;
80621;SDS011;69980;51.914;7.526;2023-05-27T03:37:43;11.85;;;4.18;;
80621;SDS011;69980;51.914;7.526;2023-05-27T03:40:08;12.23;;;4.35;;
80621;SDS011;69980;51.914;7.526;2023-05-27T03:42:36;10.55;;;4.43;;
80621;SDS011;69980;51.914;7.526;2023-05-27T03:45:01;11.02;;;4.90;;
80621;SDS011;69980;51.914;7.526;2023-05-27T03:47:26;12.65;;;4.32;;
80621;SDS011;69980;51.914;7.526;2023-05-27T03:49:52;13.88;;;5.15;;
80621;SDS011;69980;51.914;7.526;2023-05-27T03:52:17;13.23;;;4.25;;
80621;SDS011;69980;51.914;7.526;2023-05-27T03:54:42;18.38;;;5.28;;
80621;SDS011;69980;51.914;7.526;2023-05-27T03:57:08;13.57;;;4.78;;
80621;SDS011;69980;51.914;7.526;2023-05-27T03:59:33;14.57;;;5.10;;
80621;SDS011;69980;51.914;7.526;2023-05-27T04:01:59;12.32;;;4.30;;
80621;SDS011;69980;51.914;7.526;2023-05-27T04:04:24;15.38;;;4.97;;
80621;SDS011;69980;51.914;7.526;2023-05-27T04:06:50;17.45;;;5.32;;
80621;SDS011;69980;51.914;7.526;2023-05-27T04:09:15;16.35;;;5.30;;
80621;SDS011;69980;51.914;7.526;2023-05-27T04:11:40;15.10;;;4.47;;
80621;SDS011;69980;51.914;7.526;2023-05-27T04:14:05;9.60;;;4.18;;
80621;SDS011;69980;51.914;7.526;2023-05-27T04:16:31;10.93;;;4.72;;
80621;SDS011;69980;51.914;7.526;2023-05-27T04:18:56;16.92;;;4.95;;
80621;SDS011;69980;51.914;7.526;2023-05-27T04:21:22;12.95;;;4.35;;
80621;SDS011;69980;51.914;7.526;2023-05-27T04:23:47;11.75;;;4.45;;
80621;SDS011;69980;51.914;7.526;2023-05-27T04:26:12;12.48;;;4.85;;
80621;SDS011;69980;51.914;7.526;2023-05-27T04:28:38;16.80;;;5.40;;
80621;SDS011;69980;51.914;7.526;2023-05-27T04:31:05;14.77;;;4.63;;
80621;SDS011;69980;51.914;7.526;2023-05-27T04:33:30;11.65;;;4.90;;
80621;SDS011;69980;51.914;7.526;2023-05-27T04:35:55;15.40;;;4.50;;
80621;SDS011;69980;51.914;7.526;2023-05-27T04:38:21;13.75;;;4.20;;
80621;SDS011;69980;51.914;7.526;2023-05-27T04:40:46;14.85;;;4.30;;
80621;SDS011;69980;51.914;7.526;2023-05-27T04:43:12;12.40;;;4.13;;
80621;SDS011;69980;51.914;7.526;2023-05-27T04:45:37;9.32;;;3.72;;
80621;SDS011;69980;51.914;7.526;2023-05-27T04:48:03;11.30;;;3.72;;
80621;SDS011;69980;51.914;7.526;2023-05-27T04:50:28;12.25;;;4.00;;
80621;SDS011;69980;51.914;7.526;2023-05-27T04:52:53;10.18;;;3.70;;
80621;SDS011;69980;51.914;7.526;2023-05-27T04:55:19;10.38;;;3.55;;
80621;SDS011;69980;51.914;7.526;2023-05-27T04:57:44;10.45;;;3.95;;
80621;SDS011;69980;51.914;7.526;2023-05-27T05:00:09;12.02;;;3.65;;
80621;SDS011;69980;51.914;7.526;2023-05-27T05:02:35;10.02;;;4.13;;
80621;SDS011;69980;51.914;7.526;2023-05-27T05:05:04;10.75;;;3.90;;
80621;SDS011;69980;51.914;7.526;2023-05-27T05:07:31;14.52;;;3.95;;
80621;SDS011;69980;51.914;7.526;2023-05-27T05:09:58;9.93;;;3.65;;
80621;SDS011;69980;51.914;7.526;2023-05-27T05:12:23;14.15;;;4.38;;
80621;SDS011;69980;51.914;7.526;2023-05-27T05:14:49;12.98;;;4.07;;
80621;SDS011;69980;51.914;7.526;2023-05-27T05:17:14;14.30;;;5.00;;
80621;SDS011;69980;51.914;7.526;2023-05-27T05:19:39;14.93;;;3.95;;
80621;SDS011;69980;51.914;7.526;2023-05-27T05:22:05;15.65;;;4.70;;
80621;SDS011;69980;51.914;7.526;2023-05-27T05:24:30;15.93;;;4.40;;
80621;SDS011;69980;51.914;7.526;2023-05-27T05:26:55;12.45;;;4.47;;
80621;SDS011;69980;51.914;7.526;2023-05-27T05:29:21;19.48;;;5.28;;
80621;SDS011;69980;51.914;7.526;2023-05-27T05:31:46;16.02;;;4.68;;
80621;SDS011;69980;51.914;7.526;2023-05-27T05:34:12;13.18;;;3.90;;
80621;SDS011;69980;51.914;7.526;2023-05-27T05:36:37;13.65;;;4.22;;
80621;SDS011;69980;51.914;7.526;2023-05-27T05:39:03;13.88;;;4.35;;
80621;SDS011;69980;51.914;7.526;2023-05-27T05:41:28;13.93;;;4.50;;
80621;SDS011;69980;51.914;7.526;2023-05-27T05:43:54;15.15;;;4.68;;
80621;SDS011;69980;51.914;7.526;2023-05-27T05:46:19;12.88;;;4.20;;
80621;SDS011;69980;51.914;7.526;2023-05-27T05:48:45;16.08;;;4.10;;
80621;SDS011;69980;51.914;7.526;2023-05-27T05:51:10;18.40;;;4.60;;
80621;SDS011;69980;51.914;7.526;2023-05-27T05:53:36;17.30;;;5.13;;
80621;SDS011;69980;51.914;7.526;2023-05-27T05:56:01;13.43;;;4.22;;
80621;SDS011;69980;51.914;7.526;2023-05-27T05:58:27;13.40;;;3.67;;
80621;SDS011;69980;51.914;7.526;2023-05-27T06:00:52;13.45;;;4.07;;
80621;SDS011;69980;51.914;7.526;2023-05-27T06:03:17;15.98;;;4.50;;
80621;SDS011;69980;51.914;7.526;2023-05-27T06:05:43;11.52;;;3.20;;
80621;SDS011;69980;51.914;7.526;2023-05-27T06:08:08;13.63;;;3.90;;
80621;SDS011;69980;51.914;7.526;2023-05-27T06:10:34;12.45;;;3.75;;
80621;SDS011;69980;51.914;7.526;2023-05-27T06:12:59;12.73;;;3.88;;
80621;SDS011;69980;51.914;7.526;2023-05-27T06:15:25;12.20;;;3.53;;
80621;SDS011;69980;51.914;7.526;2023-05-27T06:17:50;14.52;;;3.75;;
80621;SDS011;69980;51.914;7.526;2023-05-27T06:20:15;14.88;;;3.90;;
80621;SDS011;69980;51.914;7.526;2023-05-27T06:22:42;9.68;;;3.10;;
80621;SDS011;69980;51.914;7.526;2023-05-27T06:25:07;11.32;;;3.40;;
80621;SDS011;69980;51.914;7.526;2023-05-27T06:27:33;16.20;;;3.72;;
80621;SDS011;69980;51.914;7.526;2023-05-27T06:29:58;10.40;;;3.50;;
80621;SDS011;69980;51.914;7.526;2023-05-27T06:32:23;9.75;;;3.53;;
80621;SDS011;69980;51.914;7.526;2023-05-27T06:34:49;14.98;;;4.05;;
80621;SDS011;69980;51.914;7.526;2023-05-27T06:37:14;14.55;;;4.30;;
80621;SDS011;69980;51.914;7.526;2023-05-27T06:39:39;11.07;;;3.63;;
80621;SDS011;69980;51.914;7.526;2023-05-27T06:42:05;12.18;;;3.67;;
80621;SDS011;69980;51.914;7.526;2023-05-27T06:44:30;12.85;;;4.05;;
80621;SDS011;69980;51.914;7.526;2023-05-27T06:46:55;10.48;;;3.33;;
80621;SDS011;69980;51.914;7.526;2023-05-27T06:49:20;11.07;;;3.00;;
80621;SDS011;69980;51.914;7.526;2023-05-27T06:51:46;13.15;;;3.88;;
80621;SDS011;69980;51.914;7.526;2023-05-27T06:54:11;11.07;;;3.72;;
80621;SDS011;69980;51.914;7.526;2023-05-27T06:56:36;9.48;;;3.47;;
80621;SDS011;69980;51.914;7.526;2023-05-27T06:59:02;16.63;;;4.60;;
80621;SDS011;69980;51.914;7.526;2023-05-27T07:01:27;16.05;;;4.50;;
80621;SDS011;69980;51.914;7.526;2023-05-27T07:03:53;9.90;;;3.88;;
80621;SDS011;69980;51.914;7.526;2023-05-27T07:06:18;11.88;;;3.70;;
80621;SDS011;69980;51.914;7.526;2023-05-27T07:08:43;13.68;;;3.83;;
80621;SDS011;69980;51.914;7.526;2023-05-27T07:11:09;14.25;;;3.97;;
80621;SDS011;69980;51.914;7.526;2023-05-27T07:13:34;15.48;;;4.15;;
80621;SDS011;69980;51.914;7.526;2023-05-27T07:15:59;11.85;;;3.55;;
80621;SDS011;69980;51.914;7.526;2023-05-27T07:18:25;13.80;;;4.28;;
80621;SDS011;69980;51.914;7.526;2023-05-27T07:20:50;13.90;;;4.22;;
80621;SDS011;69980;51.914;7.526;2023-05-27T07:23:15;10.73;;;3.95;;
80621;SDS011;69980;51.914;7.526;2023-05-27T07:25:40;11.07;;;3.55;;
80621;SDS011;69980;51.914;7.526;2023-05-27T07:28:06;13.88;;;4.63;;
80621;SDS011;69980;51.914;7.526;2023-05-27T07:30:31;12.85;;;3.80;;
80621;SDS011;69980;51.914;7.526;2023-05-27T07:32:56;11.70;;;3.72;;
80621;SDS011;69980;51.914;7.526;2023-05-27T07:35:22;9.48;;;3.55;;
80621;SDS011;69980;51.914;7.526;2023-05-27T07:37:47;10.43;;;3.30;;
80621;SDS011;69980;51.914;7.526;2023-05-27T07:40:12;15.73;;;4.63;;
80621;SDS011;69980;51.914;7.526;2023-05-27T07:42:38;10.70;;;3.60;;
80621;SDS011;69980;51.914;7.526;2023-05-27T07:45:03;15.60;;;4.80;;
80621;SDS011;69980;51.914;7.526;2023-05-27T07:47:29;12.40;;;3.38;;
80621;SDS011;69980;51.914;7.526;2023-05-27T07:49:54;12.57;;;3.85;;
80621;SDS011;69980;51.914;7.526;2023-05-27T07:52:19;14.10;;;3.95;;
80621;SDS011;69980;51.914;7.526;2023-05-27T07:54:45;11.20;;;3.80;;
80621;SDS011;69980;51.914;7.526;2023-05-27T07:57:10;11.23;;;4.18;;
80621;SDS011;69980;51.914;7.526;2023-05-27T07:59:35;12.90;;;4.30;;
80621;SDS011;69980;51.914;7.526;2023-05-27T08:02:00;13.25;;;3.78;;
80621;SDS011;69980;51.914;7.526;2023-05-27T08:04:26;10.65;;;3.60;;
80621;SDS011;69980;51.914;7.526;2023-05-27T08:06:51;10.82;;;3.58;;
80621;SDS011;69980;51.914;7.526;2023-05-27T08:09:17;10.77;;;3.63;;
80621;SDS011;69980;51.914;7.526;2023-05-27T08:11:42;11.38;;;3.70;;
80621;SDS011;69980;51.914;7.526;2023-05-27T08:14:07;13.65;;;3.78;;
80621;SDS011;69980;51.914;7.526;2023-05-27T08:16:32;11.63;;;3.50;;
80621;SDS011;69980;51.914;7.526;2023-05-27T08:18:58;12.32;;;4.15;;
80621;SDS011;69980;51.914;7.526;2023-05-27T08:21:23;11.40;;;3.78;;
80621;SDS011;69980;51.914;7.526;2023-05-27T08:23:49;13.00;;;3.78;;
80621;SDS011;69980;51.914;7.526;2023-05-27T08:26:15;14.98;;;4.05;;
80621;SDS011;69980;51.914;7.526;2023-05-27T08:28:40;10.43;;;3.42;;
80621;SDS011;69980;51.914;7.526;2023-05-27T08:31:05;8.77;;;3.85;;
80621;SDS011;69980;51.914;7.526;2023-05-27T08:33:31;11.20;;;3.70;;
80621;SDS011;69980;51.914;7.526;2023-05-27T08:35:56;11.60;;;4.07;;
80621;SDS011;69980;51.914;7.526;2023-05-27T08:38:22;12.18;;;3.83;;
80621;SDS011;69980;51.914;7.526;2023-05-27T08:40:47;10.15;;;3.40;;
80621;SDS011;69980;51.914;7.526;2023-05-27T08:43:13;11.75;;;3.67;;
80621;SDS011;69980;51.914;7.526;2023-05-27T08:45:38;10.77;;;3.42;;
80621;SDS011;69980;51.914;7.526;2023-05-27T08:48:04;9.10;;;3.33;;
80621;SDS011;69980;51.914;7.526;2023-05-27T08:50:29;12.27;;;3.65;;
80621;SDS011;69980;51.914;7.526;2023-05-27T08:52:54;10.32;;;3.45;;
80621;SDS011;69980;51.914;7.526;2023-05-27T08:55:21;9.55;;;3.33;;
80621;SDS011;69980;51.914;7.526;2023-05-27T08:57:49;10.05;;;3.53;;
80621;SDS011;69980;51.914;7.526;2023-05-27T09:00:16;11.73;;;4.15;;
80621;SDS011;69980;51.914;7.526;2023-05-27T09:02:42;12.15;;;3.67;;
80621;SDS011;69980;51.914;7.526;2023-05-27T09:05:08;10.02;;;3.17;;
80621;SDS011;69980;51.914;7.526;2023-05-27T09:07:34;11.07;;;3.55;;
80621;SDS011;69980;51.914;7.526;2023-05-27T09:10:00;10.43;;;3.75;;
80621;SDS011;69980;51.914;7.526;2023-05-27T09:12:25;9.40;;;3.35;;
80621;SDS011;69980;51.914;7.526;2023-05-27T09:14:51;10.23;;;4.05;;
80621;SDS011;69980;51.914;7.526;2023-05-27T09:17:16;10.55;;;3.53;;
80621;SDS011;69980;51.914;7.526;2023-05-27T09:19:43;10.30;;;3.78;;
80621;SDS011;69980;51.914;7.526;2023-05-27T09:22:09;10.75;;;3.85;;
80621;SDS011;69980;51.914;7.526;2023-05-27T09:24:36;12.82;;;3.58;;
80621;SDS011;69980;51.914;7.526;2023-05-27T09:27:01;10.95;;;3.70;;
80621;SDS011;69980;51.914;7.526;2023-05-27T09:29:26;12.30;;;4.00;;
80621;SDS011;69980;51.914;7.526;2023-05-27T09:31:55;12.32;;;3.80;;
80621;SDS011;69980;51.914;7.526;2023-05-27T09:34:20;9.63;;;4.20;;
80621;SDS011;69980;51.914;7.526;2023-05-27T09:36:47;9.55;;;3.67;;
80621;SDS011;69980;51.914;7.526;2023-05-27T09:39:14;9.95;;;3.33;;
80621;SDS011;69980;51.914;7.526;2023-05-27T09:41:40;10.60;;;3.83;;
80621;SDS011;69980;51.914;7.526;2023-05-27T09:44:06;8.40;;;3.22;;
80621;SDS011;69980;51.914;7.526;2023-05-27T09:46:32;10.23;;;3.65;;
80621;SDS011;69980;51.914;7.526;2023-05-27T09:48:59;12.10;;;4.05;;
80621;SDS011;69980;51.914;7.526;2023-05-27T09:51:24;11.43;;;3.80;;
80621;SDS011;69980;51.914;7.526;2023-05-27T09:53:51;12.10;;;4.00;;
80621;SDS011;69980;51.914;7.526;2023-05-27T09:56:18;11.38;;;3.78;;
80621;SDS011;69980;51.914;7.526;2023-05-27T09:58:44;9.95;;;3.05;;
80621;SDS011;69980;51.914;7.526;2023-05-27T10:01:09;10.88;;;3.85;;
80621;SDS011;69980;51.914;7.526;2023-05-27T10:03:35;10.40;;;3.97;;
80621;SDS011;69980;51.914;7.526;2023-05-27T10:06:01;11.40;;;3.67;;
80621;SDS011;69980;51.914;7.526;2023-05-27T10:08:27;8.93;;;3.13;;
80621;SDS011;69980;51.914;7.526;2023-05-27T10:10:52;11.02;;;3.30;;
80621;SDS011;69980;51.914;7.526;2023-05-27T10:13:18;10.38;;;3.67;;
80621;SDS011;69980;51.914;7.526;2023-05-27T10:15:48;10.52;;;3.50;;
80621;SDS011;69980;51.914;7.526;2023-05-27T10:18:22;9.57;;;3.90;;
80621;SDS011;69980;51.914;7.526;2023-05-27T10:20:49;10.32;;;3.83;;
80621;SDS011;69980;51.914;7.526;2023-05-27T10:23:15;12.50;;;3.85;;
80621;SDS011;69980;51.914;7.526;2023-05-27T10:25:46;9.98;;;3.72;;
80621;SDS011;69980;51.914;7.526;2023-05-27T10:31:02;10.57;;;3.60;;
80621;SDS011;69980;51.914;7.526;2023-05-27T10:36:15;8.82;;;2.95;;
80621;SDS011;69980;51.914;7.526;2023-05-27T10:38:42;10.93;;;3.95;;
80621;SDS011;69980;51.914;7.526;2023-05-27T10:41:08;11.30;;;3.63;;
80621;SDS011;69980;51.914;7.526;2023-05-27T10:43:34;12.23;;;4.00;;
80621;SDS011;69980;51.914;7.526;2023-05-27T10:46:03;11.68;;;3.83;;
80621;SDS011;69980;51.914;7.526;2023-05-27T10:48:30;8.82;;;3.67;;
80621;SDS011;69980;51.914;7.526;2023-05-27T10:50:57;11.82;;;4.15;;
80621;SDS011;69980;51.914;7.526;2023-05-27T10:53:24;10.15;;;3.60;;
80621;SDS011;69980;51.914;7.526;2023-05-27T10:55:51;10.60;;;3.75;;
80621;SDS011;69980;51.914;7.526;2023-05-27T10:58:16;11.32;;;3.97;;
80621;SDS011;69980;51.914;7.526;2023-05-27T11:00:42;9.52;;;3.67;;
80621;SDS011;69980;51.914;7.526;2023-05-27T11:03:19;11.70;;;4.32;;
80621;SDS011;69980;51.914;7.526;2023-05-27T11:06:00;10.95;;;3.67;;
80621;SDS011;69980;51.914;7.526;2023-05-27T11:08:25;11.25;;;3.63;;
80621;SDS011;69980;51.914;7.526;2023-05-27T11:10:57;11.05;;;3.85;;
80621;SDS011;69980;51.914;7.526;2023-05-27T11:13:31;12.05;;;3.85;;
80621;SDS011;69980;51.914;7.526;2023-05-27T11:16:04;8.15;;;3.47;;
80621;SDS011;69980;51.914;7.526;2023-05-27T11:18:46;11.75;;;3.92;;
80621;SDS011;69980;51.914;7.526;2023-05-27T11:21:12;9.75;;;3.67;;
80621;SDS011;69980;51.914;7.526;2023-05-27T11:23:57;11.60;;;3.83;;
80621;SDS011;69980;51.914;7.526;2023-05-27T11:26:22;17.10;;;3.90;;
80621;SDS011;69980;51.914;7.526;2023-05-27T11:28:52;13.48;;;3.85;;
80621;SDS011;69980;51.914;7.526;2023-05-27T11:31:22;12.00;;;3.70;;
80621;SDS011;69980;51.914;7.526;2023-05-27T11:33:52;9.25;;;3.63;;
80621;SDS011;69980;51.914;7.526;2023-05-27T11:36:17;9.98;;;3.83;;
80621;SDS011;69980;51.914;7.526;2023-05-27T11:38:50;9.75;;;3.35;;
80621;SDS011;69980;51.914;7.526;2023-05-27T11:41:16;8.10;;;3.38;;
80621;SDS011;69980;51.914;7.526;2023-05-27T11:46:37;8.52;;;3.50;;
80621;SDS011;69980;51.914;7.526;2023-05-27T11:49:06;10.05;;;3.70;;
80621;SDS011;69980;51.914;7.526;2023-05-27T11:51:36;9.43;;;3.75;;
80621;SDS011;69980;51.914;7.526;2023-05-27T11:54:02;10.45;;;3.92;;
80621;SDS011;69980;51.914;7.526;2023-05-27T11:56:28;12.23;;;3.80;;
80621;SDS011;69980;51.914;7.526;2023-05-27T11:58:53;14.07;;;3.75;;
80621;SDS011;69980;51.914;7.526;2023-05-27T12:01:18;9.43;;;3.35;;
80621;SDS011;69980;51.914;7.526;2023-05-27T12:03:45;9.73;;;3.72;;
80621;SDS011;69980;51.914;7.526;2023-05-27T12:06:11;7.28;;;3.03;;
80621;SDS011;69980;51.914;7.526;2023-05-27T12:08:36;11.95;;;3.63;;
80621;SDS011;69980;51.914;7.526;2023-05-27T12:11:01;12.25;;;4.15;;
80621;SDS011;69980;51.914;7.526;2023-05-27T12:13:27;12.52;;;4.10;;
80621;SDS011;69980;51.914;7.526;2023-05-27T12:15:52;9.35;;;3.53;;
80621;SDS011;69980;51.914;7.526;2023-05-27T12:18:17;7.32;;;3.28;;
80621;SDS011;69980;51.914;7.526;2023-05-27T12:20:43;7.90;;;3.08;;
80621;SDS011;69980;51.914;7.526;2023-05-27T12:23:09;10.35;;;3.22;;
80621;SDS011;69980;51.914;7.526;2023-05-27T12:25:34;9.52;;;3.20;;
80621;SDS011;69980;51.914;7.526;2023-05-27T12:28:00;8.32;;;3.17;;
80621;SDS011;69980;51.914;7.526;2023-05-27T12:30:25;9.90;;;4.10;;
80621;SDS011;69980;51.914;7.526;2023-05-27T12:32:50;9.93;;;3.25;;
80621;SDS011;69980;51.914;7.526;2023-05-27T12:35:15;9.10;;;3.30;;
80621;SDS011;69980;51.914;7.526;2023-05-27T12:37:41;8.15;;;2.80;;
80621;SDS011;69980;51.914;7.526;2023-05-27T12:40:07;9.77;;;3.13;;
80621;SDS011;69980;51.914;7.526;2023-05-27T12:42:33;10.25;;;3.60;;
80621;SDS011;69980;51.914;7.526;2023-05-27T12:44:58;8.05;;;3.33;;
80621;SDS011;69980;51.914;7.526;2023-05-27T12:47:23;9.02;;;3.25;;
80621;SDS011;69980;51.914;7.526;2023-05-27T12:49:48;8.65;;;3.40;;
80621;SDS011;69980;51.914;7.526;2023-05-27T12:52:14;8.60;;;3.30;;
80621;SDS011;69980;51.914;7.526;2023-05-27T12:54:39;11.90;;;3.42;;
80621;SDS011;69980;51.914;7.526;2023-05-27T12:57:04;6.90;;;3.20;;
80621;SDS011;69980;51.914;7.526;2023-05-27T12:59:30;10.30;;;3.53;;
80621;SDS011;69980;51.914;7.526;2023-05-27T13:01:56;9.85;;;3.05;;
80621;SDS011;69980;51.914;7.526;2023-05-27T13:04:21;8.52;;;3.05;;
80621;SDS011;69980;51.914;7.526;2023-05-27T13:06:46;10.70;;;2.97;;
80621;SDS011;69980;51.914;7.526;2023-05-27T13:09:12;7.20;;;3.28;;
80621;SDS011;69980;51.914;7.526;2023-05-27T13:11:37;10.25;;;3.35;;
80621;SDS011;69980;51.914;7.526;2023-05-27T13:14:02;9.38;;;3.50;;
80621;SDS011;69980;51.914;7.526;2023-05-27T13:16:28;9.85;;;3.10;;
80621;SDS011;69980;51.914;7.526;2023-05-27T13:18:53;8.45;;;2.80;;
80621;SDS011;69980;51.914;7.526;2023-05-27T13:21:18;8.88;;;3.25;;
80621;SDS011;69980;51.914;7.526;2023-05-27T13:23:44;8.65;;;3.10;;
80621;SDS011;69980;51.914;7.526;2023-05-27T13:26:09;7.88;;;2.90;;
80621;SDS011;69980;51.914;7.526;2023-05-27T13:28:34;7.68;;;2.80;;
80621;SDS011;69980;51.914;7.526;2023-05-27T13:30:59;7.20;;;2.80;;
80621;SDS011;69980;51.914;7.526;2023-05-27T13:33:25;9.55;;;3.30;;
80621;SDS011;69980;51.914;7.526;2023-05-27T13:35:50;9.07;;;3.28;;
80621;SDS011;69980;51.914;7.526;2023-05-27T13:38:15;9.95;;;3.25;;
80621;SDS011;69980;51.914;7.526;2023-05-27T13:40:41;8.02;;;3.05;;
80621;SDS011;69980;51.914;7.526;2023-05-27T13:43:06;7.00;;;2.72;;
80621;SDS011;69980;51.914;7.526;2023-05-27T13:45:31;8.02;;;2.50;;
80621;SDS011;69980;51.914;7.526;2023-05-27T13:47:56;8.85;;;3.00;;
80621;SDS011;69980;51.914;7.526;2023-05-27T13:50:22;6.88;;;2.95;;
80621;SDS011;69980;51.914;7.526;2023-05-27T13:52:47;8.60;;;2.88;;
80621;SDS011;69980;51.914;7.526;2023-05-27T13:55:13;11.13;;;3.28;;
80621;SDS011;69980;51.914;7.526;2023-05-27T13:57:38;6.10;;;2.80;;
80621;SDS011;69980;51.914;7.526;2023-05-27T14:00:03;7.75;;;2.72;;
80621;SDS011;69980;51.914;7.526;2023-05-27T14:02:29;6.15;;;2.33;;
80621;SDS011;69980;51.914;7.526;2023-05-27T14:04:54;8.23;;;2.90;;
80621;SDS011;69980;51.914;7.526;2023-05-27T14:07:19;7.18;;;2.78;;
80621;SDS011;69980;51.914;7.526;2023-05-27T14:09:45;7.20;;;3.08;;
80621;SDS011;69980;51.914;7.526;2023-05-27T14:12:10;9.88;;;3.00;;
80621;SDS011;69980;51.914;7.526;2023-05-27T14:14:36;6.18;;;2.58;;
80621;SDS011;69980;51.914;7.526;2023-05-27T14:17:01;7.28;;;3.05;;
80621;SDS011;69980;51.914;7.526;2023-05-27T14:19:26;7.95;;;2.90;;
80621;SDS011;69980;51.914;7.526;2023-05-27T14:21:51;9.00;;;2.55;;
80621;SDS011;69980;51.914;7.526;2023-05-27T14:24:17;8.25;;;2.70;;
80621;SDS011;69980;51.914;7.526;2023-05-27T14:26:42;6.07;;;2.60;;
80621;SDS011;69980;51.914;7.526;2023-05-27T14:29:07;5.72;;;2.60;;
80621;SDS011;69980;51.914;7.526;2023-05-27T14:31:33;6.78;;;2.90;;
80621;SDS011;69980;51.914;7.526;2023-05-27T14:33:58;7.00;;;2.80;;
80621;SDS011;69980;51.914;7.526;2023-05-27T14:36:23;5.70;;;2.70;;
80621;SDS011;69980;51.914;7.526;2023-05-27T14:38:49;8.30;;;2.72;;
80621;SDS011;69980;51.914;7.526;2023-05-27T14:41:14;6.93;;;2.88;;
80621;SDS011;69980;51.914;7.526;2023-05-27T14:43:39;5.95;;;2.80;;
80621;SDS011;69980;51.914;7.526;2023-05-27T14:46:04;7.78;;;2.90;;